sensor_id;sensor_type;location;lat;lon;timestamp;temperature;humidity
39777;DHT22;25453;48.162;14.510;2022-07-24T00:00:53;25.40;60.50
39777;DHT22;25453;48.162;14.510;2022-07-24T00:03:20;25.30;60.60
39777;DHT22;25453;48.162;14.510;2022-07-24T00:05:48;25.30;60.80
39777;DHT22;25453;48.162;14.510;2022-07-24T00:08:15;25.20;61.00
39777;DHT22;25453;48.162;14.510;2022-07-24T00:10:42;25.20;61.20
39777;DHT22;25453;48.162;14.510;2022-07-24T00:13:10;25.10;61.40
39777;DHT22;25453;48.162;14.510;2022-07-24T00:15:37;25.10;61.50
39777;DHT22;25453;48.162;14.510;2022-07-24T00:18:04;25.10;61.60
39777;DHT22;25453;48.162;14.510;2022-07-24T00:20:32;25.10;61.70
39777;DHT22;25453;48.162;14.510;2022-07-24T00:23:01;25.00;61.80
39777;DHT22;25453;48.162;14.510;2022-07-24T00:25:28;25.00;62.00
39777;DHT22;25453;48.162;14.510;2022-07-24T00:27:56;25.00;62.20
39777;DHT22;25453;48.162;14.510;2022-07-24T00:30:23;24.90;62.30
39777;DHT22;25453;48.162;14.510;2022-07-24T00:32:51;24.90;62.40
39777;DHT22;25453;48.162;14.510;2022-07-24T00:35:18;24.90;62.70
39777;DHT22;25453;48.162;14.510;2022-07-24T00:37:46;24.80;62.80
39777;DHT22;25453;48.162;14.510;2022-07-24T00:40:14;24.80;63.00
39777;DHT22;25453;48.162;14.510;2022-07-24T00:42:43;24.80;63.10
39777;DHT22;25453;48.162;14.510;2022-07-24T00:45:12;24.90;63.10
39777;DHT22;25453;48.162;14.510;2022-07-24T00:47:51;24.90;63.00
39777;DHT22;25453;48.162;14.510;2022-07-24T00:50:24;24.90;62.90
39777;DHT22;25453;48.162;14.510;2022-07-24T00:52:53;24.80;63.10
39777;DHT22;25453;48.162;14.510;2022-07-24T00:55:21;24.80;63.20
39777;DHT22;25453;48.162;14.510;2022-07-24T00:57:48;24.80;63.10
39777;DHT22;25453;48.162;14.510;2022-07-24T01:00:18;24.80;63.20
39777;DHT22;25453;48.162;14.510;2022-07-24T01:02:47;24.80;63.20
39777;DHT22;25453;48.162;14.510;2022-07-24T01:05:15;24.80;63.20
39777;DHT22;25453;48.162;14.510;2022-07-24T01:07:43;24.80;63.20
39777;DHT22;25453;48.162;14.510;2022-07-24T01:10:11;24.70;63.30
39777;DHT22;25453;48.162;14.510;2022-07-24T01:12:39;24.70;63.40
39777;DHT22;25453;48.162;14.510;2022-07-24T01:15:08;24.70;63.30
39777;DHT22;25453;48.162;14.510;2022-07-24T01:17:39;24.60;63.30
39777;DHT22;25453;48.162;14.510;2022-07-24T01:20:08;24.50;63.40
39777;DHT22;25453;48.162;14.510;2022-07-24T01:22:39;24.50;63.70
39777;DHT22;25453;48.162;14.510;2022-07-24T01:25:07;24.50;63.70
39777;DHT22;25453;48.162;14.510;2022-07-24T01:27:37;24.50;63.80
39777;DHT22;25453;48.162;14.510;2022-07-24T01:30:04;24.50;63.90
39777;DHT22;25453;48.162;14.510;2022-07-24T01:32:32;24.50;64.00
39777;DHT22;25453;48.162;14.510;2022-07-24T01:35:00;24.50;64.00
39777;DHT22;25453;48.162;14.510;2022-07-24T01:37:27;24.50;64.10
39777;DHT22;25453;48.162;14.510;2022-07-24T01:39:55;24.50;64.00
39777;DHT22;25453;48.162;14.510;2022-07-24T01:42:22;24.50;63.90
39777;DHT22;25453;48.162;14.510;2022-07-24T01:44:53;24.60;63.90
39777;DHT22;25453;48.162;14.510;2022-07-24T01:47:20;24.50;63.80
39777;DHT22;25453;48.162;14.510;2022-07-24T01:49:48;24.50;63.80
39777;DHT22;25453;48.162;14.510;2022-07-24T01:52:15;24.50;63.70
39777;DHT22;25453;48.162;14.510;2022-07-24T01:54:43;24.40;63.80
39777;DHT22;25453;48.162;14.510;2022-07-24T01:57:10;24.40;63.90
39777;DHT22;25453;48.162;14.510;2022-07-24T01:59:38;24.30;64.00
39777;DHT22;25453;48.162;14.510;2022-07-24T02:02:06;24.20;64.10
39777;DHT22;25453;48.162;14.510;2022-07-24T02:04:34;24.20;64.20
39777;DHT22;25453;48.162;14.510;2022-07-24T02:07:01;24.10;64.30
39777;DHT22;25453;48.162;14.510;2022-07-24T02:09:30;24.10;64.60
39777;DHT22;25453;48.162;14.510;2022-07-24T02:11:57;24.10;64.60
39777;DHT22;25453;48.162;14.510;2022-07-24T02:14:25;24.00;64.60
39777;DHT22;25453;48.162;14.510;2022-07-24T02:16:52;24.00;64.80
39777;DHT22;25453;48.162;14.510;2022-07-24T02:19:19;23.90;64.90
39777;DHT22;25453;48.162;14.510;2022-07-24T02:21:47;23.90;65.00
39777;DHT22;25453;48.162;14.510;2022-07-24T02:24:14;23.80;65.00
39777;DHT22;25453;48.162;14.510;2022-07-24T02:26:42;23.80;65.10
39777;DHT22;25453;48.162;14.510;2022-07-24T02:29:10;23.80;65.20
39777;DHT22;25453;48.162;14.510;2022-07-24T02:31:37;23.70;65.30
39777;DHT22;25453;48.162;14.510;2022-07-24T02:34:05;23.70;65.40
39777;DHT22;25453;48.162;14.510;2022-07-24T02:36:33;23.70;65.50
39777;DHT22;25453;48.162;14.510;2022-07-24T02:39:00;23.70;65.60
39777;DHT22;25453;48.162;14.510;2022-07-24T02:41:28;23.60;65.50
39777;DHT22;25453;48.162;14.510;2022-07-24T02:43:56;23.60;65.60
39777;DHT22;25453;48.162;14.510;2022-07-24T02:46:23;23.60;65.80
39777;DHT22;25453;48.162;14.510;2022-07-24T02:48:51;23.60;65.90
39777;DHT22;25453;48.162;14.510;2022-07-24T02:51:18;23.50;66.00
39777;DHT22;25453;48.162;14.510;2022-07-24T02:53:45;23.50;66.10
39777;DHT22;25453;48.162;14.510;2022-07-24T02:56:13;23.50;66.20
39777;DHT22;25453;48.162;14.510;2022-07-24T02:58:41;23.40;66.30
39777;DHT22;25453;48.162;14.510;2022-07-24T03:01:08;23.40;66.40
39777;DHT22;25453;48.162;14.510;2022-07-24T03:03:35;23.40;66.50
39777;DHT22;25453;48.162;14.510;2022-07-24T03:06:04;23.50;66.50
39777;DHT22;25453;48.162;14.510;2022-07-24T03:08:32;23.50;66.30
39777;DHT22;25453;48.162;14.510;2022-07-24T03:10:59;23.40;66.40
39777;DHT22;25453;48.162;14.510;2022-07-24T03:13:27;23.50;66.50
39777;DHT22;25453;48.162;14.510;2022-07-24T03:15:54;23.50;66.30
39777;DHT22;25453;48.162;14.510;2022-07-24T03:18:21;23.50;66.10
39777;DHT22;25453;48.162;14.510;2022-07-24T03:20:51;23.50;66.10
39777;DHT22;25453;48.162;14.510;2022-07-24T03:23:19;23.50;66.10
39777;DHT22;25453;48.162;14.510;2022-07-24T03:25:46;23.50;66.10
39777;DHT22;25453;48.162;14.510;2022-07-24T03:28:15;23.50;66.10
39777;DHT22;25453;48.162;14.510;2022-07-24T03:30:42;23.50;66.10
39777;DHT22;25453;48.162;14.510;2022-07-24T03:33:10;23.50;66.00
39777;DHT22;25453;48.162;14.510;2022-07-24T03:35:39;23.40;65.90
39777;DHT22;25453;48.162;14.510;2022-07-24T03:38:07;23.40;65.70
39777;DHT22;25453;48.162;14.510;2022-07-24T03:40:34;23.30;65.80
39777;DHT22;25453;48.162;14.510;2022-07-24T03:43:02;23.20;66.00
39777;DHT22;25453;48.162;14.510;2022-07-24T03:45:29;23.10;66.20
39777;DHT22;25453;48.162;14.510;2022-07-24T03:47:57;23.10;66.50
39777;DHT22;25453;48.162;14.510;2022-07-24T03:50:24;23.10;66.70
39777;DHT22;25453;48.162;14.510;2022-07-24T03:52:52;23.10;66.90
39777;DHT22;25453;48.162;14.510;2022-07-24T03:55:20;23.10;66.80
39777;DHT22;25453;48.162;14.510;2022-07-24T03:57:47;23.10;66.80
39777;DHT22;25453;48.162;14.510;2022-07-24T04:00:15;23.10;67.10
39777;DHT22;25453;48.162;14.510;2022-07-24T04:02:43;23.10;67.10
39777;DHT22;25453;48.162;14.510;2022-07-24T04:05:11;23.20;67.10
39777;DHT22;25453;48.162;14.510;2022-07-24T04:07:41;23.30;67.00
39777;DHT22;25453;48.162;14.510;2022-07-24T04:10:12;23.40;66.80
39777;DHT22;25453;48.162;14.510;2022-07-24T04:12:39;23.40;66.70
39777;DHT22;25453;48.162;14.510;2022-07-24T04:15:07;23.40;66.70
39777;DHT22;25453;48.162;14.510;2022-07-24T04:17:40;23.50;66.70
39777;DHT22;25453;48.162;14.510;2022-07-24T04:20:09;23.50;66.60
39777;DHT22;25453;48.162;14.510;2022-07-24T04:22:38;23.40;66.50
39777;DHT22;25453;48.162;14.510;2022-07-24T04:25:09;23.40;66.50
39777;DHT22;25453;48.162;14.510;2022-07-24T04:27:37;23.40;66.50
39777;DHT22;25453;48.162;14.510;2022-07-24T04:30:05;23.40;66.70
39777;DHT22;25453;48.162;14.510;2022-07-24T04:32:34;23.40;66.80
39777;DHT22;25453;48.162;14.510;2022-07-24T04:35:02;23.40;67.00
39777;DHT22;25453;48.162;14.510;2022-07-24T04:37:30;23.40;67.20
39777;DHT22;25453;48.162;14.510;2022-07-24T04:39:58;23.40;67.30
39777;DHT22;25453;48.162;14.510;2022-07-24T04:42:26;23.50;67.40
39777;DHT22;25453;48.162;14.510;2022-07-24T04:44:53;23.50;67.40
39777;DHT22;25453;48.162;14.510;2022-07-24T04:47:21;23.60;67.40
39777;DHT22;25453;48.162;14.510;2022-07-24T04:49:50;23.60;67.40
39777;DHT22;25453;48.162;14.510;2022-07-24T04:52:18;23.60;67.40
39777;DHT22;25453;48.162;14.510;2022-07-24T04:54:45;23.70;67.50
39777;DHT22;25453;48.162;14.510;2022-07-24T04:57:13;23.70;67.50
39777;DHT22;25453;48.162;14.510;2022-07-24T04:59:42;23.80;67.60
39777;DHT22;25453;48.162;14.510;2022-07-24T05:02:09;23.80;67.60
39777;DHT22;25453;48.162;14.510;2022-07-24T05:04:39;23.90;67.50
39777;DHT22;25453;48.162;14.510;2022-07-24T05:07:07;24.00;67.40
39777;DHT22;25453;48.162;14.510;2022-07-24T05:09:35;24.00;67.10
39777;DHT22;25453;48.162;14.510;2022-07-24T05:12:03;24.10;67.00
39777;DHT22;25453;48.162;14.510;2022-07-24T05:14:30;24.10;66.90
39777;DHT22;25453;48.162;14.510;2022-07-24T05:16:58;24.10;66.80
39777;DHT22;25453;48.162;14.510;2022-07-24T05:19:25;24.10;66.80
39777;DHT22;25453;48.162;14.510;2022-07-24T05:21:53;24.10;66.90
39777;DHT22;25453;48.162;14.510;2022-07-24T05:24:20;24.10;66.90
39777;DHT22;25453;48.162;14.510;2022-07-24T05:26:48;24.10;66.90
39777;DHT22;25453;48.162;14.510;2022-07-24T05:29:17;24.10;66.90
39777;DHT22;25453;48.162;14.510;2022-07-24T05:31:44;24.10;66.80
39777;DHT22;25453;48.162;14.510;2022-07-24T05:34:13;24.10;66.80
39777;DHT22;25453;48.162;14.510;2022-07-24T05:36:41;24.10;66.80
39777;DHT22;25453;48.162;14.510;2022-07-24T05:39:08;24.10;66.90
39777;DHT22;25453;48.162;14.510;2022-07-24T05:41:36;24.10;66.90
39777;DHT22;25453;48.162;14.510;2022-07-24T05:44:03;24.10;67.00
39777;DHT22;25453;48.162;14.510;2022-07-24T05:46:31;24.10;67.10
39777;DHT22;25453;48.162;14.510;2022-07-24T05:48:58;24.10;67.20
39777;DHT22;25453;48.162;14.510;2022-07-24T05:51:26;24.20;67.20
39777;DHT22;25453;48.162;14.510;2022-07-24T05:53:55;24.20;67.10
39777;DHT22;25453;48.162;14.510;2022-07-24T05:56:23;24.20;67.20
39777;DHT22;25453;48.162;14.510;2022-07-24T05:58:51;24.30;67.20
39777;DHT22;25453;48.162;14.510;2022-07-24T06:01:18;24.40;67.10
39777;DHT22;25453;48.162;14.510;2022-07-24T06:03:47;24.50;67.00
39777;DHT22;25453;48.162;14.510;2022-07-24T06:06:15;24.50;66.80
39777;DHT22;25453;48.162;14.510;2022-07-24T06:08:45;24.60;66.70
39777;DHT22;25453;48.162;14.510;2022-07-24T06:11:13;24.60;66.30
39777;DHT22;25453;48.162;14.510;2022-07-24T06:13:40;24.70;66.20
39777;DHT22;25453;48.162;14.510;2022-07-24T06:16:07;24.70;66.10
39777;DHT22;25453;48.162;14.510;2022-07-24T06:18:34;24.70;66.00
39777;DHT22;25453;48.162;14.510;2022-07-24T06:21:01;24.80;66.00
39777;DHT22;25453;48.162;14.510;2022-07-24T06:23:29;24.80;65.90
39777;DHT22;25453;48.162;14.510;2022-07-24T06:25:56;24.90;65.70
39777;DHT22;25453;48.162;14.510;2022-07-24T06:28:23;24.90;65.70
39777;DHT22;25453;48.162;14.510;2022-07-24T06:30:50;24.90;65.70
39777;DHT22;25453;48.162;14.510;2022-07-24T06:33:17;25.00;65.60
39777;DHT22;25453;48.162;14.510;2022-07-24T06:35:45;25.00;65.40
39777;DHT22;25453;48.162;14.510;2022-07-24T06:38:45;25.10;65.40
39777;DHT22;25453;48.162;14.510;2022-07-24T06:41:13;25.10;65.30
39777;DHT22;25453;48.162;14.510;2022-07-24T06:43:40;25.10;65.00
39777;DHT22;25453;48.162;14.510;2022-07-24T06:46:07;25.10;64.90
39777;DHT22;25453;48.162;14.510;2022-07-24T06:48:34;25.10;64.90
39777;DHT22;25453;48.162;14.510;2022-07-24T06:51:02;25.20;64.80
39777;DHT22;25453;48.162;14.510;2022-07-24T06:53:29;25.20;64.90
39777;DHT22;25453;48.162;14.510;2022-07-24T06:56:03;25.20;64.80
39777;DHT22;25453;48.162;14.510;2022-07-24T06:58:37;25.20;64.80
39777;DHT22;25453;48.162;14.510;2022-07-24T07:01:04;25.20;64.70
39777;DHT22;25453;48.162;14.510;2022-07-24T07:03:31;25.30;64.70
39777;DHT22;25453;48.162;14.510;2022-07-24T07:05:58;25.30;64.90
39777;DHT22;25453;48.162;14.510;2022-07-24T07:08:25;25.30;64.80
39777;DHT22;25453;48.162;14.510;2022-07-24T07:10:52;25.30;64.80
39777;DHT22;25453;48.162;14.510;2022-07-24T07:13:19;25.40;64.80
39777;DHT22;25453;48.162;14.510;2022-07-24T07:15:46;25.40;64.80
39777;DHT22;25453;48.162;14.510;2022-07-24T07:18:14;25.50;64.70
39777;DHT22;25453;48.162;14.510;2022-07-24T07:20:41;25.50;64.60
39777;DHT22;25453;48.162;14.510;2022-07-24T07:23:09;25.50;64.60
39777;DHT22;25453;48.162;14.510;2022-07-24T07:25:36;25.50;64.30
39777;DHT22;25453;48.162;14.510;2022-07-24T07:28:03;25.60;64.20
39777;DHT22;25453;48.162;14.510;2022-07-24T07:30:30;25.60;64.10
39777;DHT22;25453;48.162;14.510;2022-07-24T07:32:57;25.70;64.10
39777;DHT22;25453;48.162;14.510;2022-07-24T07:35:24;25.70;64.20
39777;DHT22;25453;48.162;14.510;2022-07-24T07:37:53;25.80;64.20
39777;DHT22;25453;48.162;14.510;2022-07-24T07:40:20;25.80;64.20
39777;DHT22;25453;48.162;14.510;2022-07-24T07:42:48;25.80;64.10
39777;DHT22;25453;48.162;14.510;2022-07-24T07:45:16;25.90;63.90
39777;DHT22;25453;48.162;14.510;2022-07-24T07:47:43;25.90;63.90
39777;DHT22;25453;48.162;14.510;2022-07-24T07:50:11;25.90;63.90
39777;DHT22;25453;48.162;14.510;2022-07-24T07:52:38;25.90;63.90
39777;DHT22;25453;48.162;14.510;2022-07-24T07:55:06;26.00;63.90
39777;DHT22;25453;48.162;14.510;2022-07-24T07:57:33;26.00;63.80
39777;DHT22;25453;48.162;14.510;2022-07-24T08:00:20;26.00;63.80
39777;DHT22;25453;48.162;14.510;2022-07-24T08:02:48;26.00;63.80
39777;DHT22;25453;48.162;14.510;2022-07-24T08:05:15;26.00;63.80
39777;DHT22;25453;48.162;14.510;2022-07-24T08:07:42;26.10;63.40
39777;DHT22;25453;48.162;14.510;2022-07-24T08:10:10;26.10;63.20
39777;DHT22;25453;48.162;14.510;2022-07-24T08:12:38;26.10;63.20
39777;DHT22;25453;48.162;14.510;2022-07-24T08:15:06;26.10;63.30
39777;DHT22;25453;48.162;14.510;2022-07-24T08:17:33;26.20;63.20
39777;DHT22;25453;48.162;14.510;2022-07-24T08:20:01;26.20;63.10
39777;DHT22;25453;48.162;14.510;2022-07-24T08:22:28;26.30;62.80
39777;DHT22;25453;48.162;14.510;2022-07-24T08:24:55;26.30;62.40
39777;DHT22;25453;48.162;14.510;2022-07-24T08:27:23;26.30;62.60
39777;DHT22;25453;48.162;14.510;2022-07-24T08:29:50;26.30;62.50
39777;DHT22;25453;48.162;14.510;2022-07-24T08:32:17;26.30;62.60
39777;DHT22;25453;48.162;14.510;2022-07-24T08:34:44;26.40;62.30
39777;DHT22;25453;48.162;14.510;2022-07-24T08:37:11;26.40;62.30
39777;DHT22;25453;48.162;14.510;2022-07-24T08:39:40;26.50;62.20
39777;DHT22;25453;48.162;14.510;2022-07-24T08:42:07;26.50;62.10
39777;DHT22;25453;48.162;14.510;2022-07-24T08:44:35;26.60;61.90
39777;DHT22;25453;48.162;14.510;2022-07-24T08:47:02;26.60;61.80
39777;DHT22;25453;48.162;14.510;2022-07-24T08:49:31;26.70;61.60
39777;DHT22;25453;48.162;14.510;2022-07-24T08:52:00;26.70;61.20
39777;DHT22;25453;48.162;14.510;2022-07-24T08:54:29;26.60;61.20
39777;DHT22;25453;48.162;14.510;2022-07-24T08:56:56;26.70;61.20
39777;DHT22;25453;48.162;14.510;2022-07-24T08:59:23;26.70;60.90
39777;DHT22;25453;48.162;14.510;2022-07-24T09:01:53;26.70;60.80
39777;DHT22;25453;48.162;14.510;2022-07-24T09:07:11;26.80;60.90
39777;DHT22;25453;48.162;14.510;2022-07-24T09:09:40;26.90;60.80
39777;DHT22;25453;48.162;14.510;2022-07-24T09:12:13;27.00;60.50
39777;DHT22;25453;48.162;14.510;2022-07-24T09:14:46;27.10;60.50
39777;DHT22;25453;48.162;14.510;2022-07-24T09:17:19;27.30;60.30
39777;DHT22;25453;48.162;14.510;2022-07-24T09:19:51;27.40;60.20
39777;DHT22;25453;48.162;14.510;2022-07-24T09:22:35;27.60;59.80
39777;DHT22;25453;48.162;14.510;2022-07-24T09:27:45;27.80;59.30
39777;DHT22;25453;48.162;14.510;2022-07-24T09:35:37;28.30;58.40
39777;DHT22;25453;48.162;14.510;2022-07-24T09:38:07;28.40;58.10
39777;DHT22;25453;48.162;14.510;2022-07-24T09:40:37;28.60;57.50
39777;DHT22;25453;48.162;14.510;2022-07-24T09:43:26;28.70;57.00
39777;DHT22;25453;48.162;14.510;2022-07-24T09:46:08;28.80;56.20
39777;DHT22;25453;48.162;14.510;2022-07-24T09:48:51;28.90;55.30
39777;DHT22;25453;48.162;14.510;2022-07-24T09:51:20;29.00;54.80
39777;DHT22;25453;48.162;14.510;2022-07-24T09:53:54;29.10;54.30
39777;DHT22;25453;48.162;14.510;2022-07-24T09:56:22;29.20;54.40
39777;DHT22;25453;48.162;14.510;2022-07-24T09:58:51;29.40;54.00
39777;DHT22;25453;48.162;14.510;2022-07-24T10:01:24;29.60;53.50
39777;DHT22;25453;48.162;14.510;2022-07-24T10:03:53;29.80;53.00
39777;DHT22;25453;48.162;14.510;2022-07-24T10:06:25;30.00;52.10
39777;DHT22;25453;48.162;14.510;2022-07-24T10:08:54;30.30;51.70
39777;DHT22;25453;48.162;14.510;2022-07-24T10:11:22;30.60;51.30
39777;DHT22;25453;48.162;14.510;2022-07-24T10:13:49;30.90;51.10
39777;DHT22;25453;48.162;14.510;2022-07-24T10:16:27;31.20;50.50
39777;DHT22;25453;48.162;14.510;2022-07-24T10:18:59;31.50;50.30
39777;DHT22;25453;48.162;14.510;2022-07-24T10:21:35;31.80;50.00
39777;DHT22;25453;48.162;14.510;2022-07-24T10:24:30;32.10;49.40
39777;DHT22;25453;48.162;14.510;2022-07-24T10:27:03;32.30;49.00
39777;DHT22;25453;48.162;14.510;2022-07-24T10:29:34;32.50;48.70
39777;DHT22;25453;48.162;14.510;2022-07-24T10:32:02;32.70;48.10
39777;DHT22;25453;48.162;14.510;2022-07-24T10:45:34;33.50;44.30
39777;DHT22;25453;48.162;14.510;2022-07-24T10:48:26;33.60;43.60
39777;DHT22;25453;48.162;14.510;2022-07-24T10:53:29;33.70;41.80
39777;DHT22;25453;48.162;14.510;2022-07-24T10:56:16;33.80;40.90
39777;DHT22;25453;48.162;14.510;2022-07-24T11:01:43;33.90;39.80
39777;DHT22;25453;48.162;14.510;2022-07-24T11:06:46;33.90;38.70
39777;DHT22;25453;48.162;14.510;2022-07-24T11:09:15;34.00;38.50
39777;DHT22;25453;48.162;14.510;2022-07-24T11:14:46;34.10;38.50
39777;DHT22;25453;48.162;14.510;2022-07-24T11:17:39;34.20;38.20
39777;DHT22;25453;48.162;14.510;2022-07-24T11:20:09;34.30;38.40
39777;DHT22;25453;48.162;14.510;2022-07-24T11:22:53;34.40;38.50
39777;DHT22;25453;48.162;14.510;2022-07-24T11:25:28;34.50;38.20
39777;DHT22;25453;48.162;14.510;2022-07-24T11:28:12;34.50;38.00
39777;DHT22;25453;48.162;14.510;2022-07-24T11:30:44;34.50;38.00
39777;DHT22;25453;48.162;14.510;2022-07-24T11:33:16;34.50;37.60
39777;DHT22;25453;48.162;14.510;2022-07-24T11:35:44;34.50;37.10
39777;DHT22;25453;48.162;14.510;2022-07-24T11:38:12;34.50;36.90
39777;DHT22;25453;48.162;14.510;2022-07-24T11:40:41;34.50;36.70
39777;DHT22;25453;48.162;14.510;2022-07-24T11:43:08;34.40;36.40
39777;DHT22;25453;48.162;14.510;2022-07-24T11:45:39;34.30;36.60
39777;DHT22;25453;48.162;14.510;2022-07-24T11:48:19;34.20;36.20
39777;DHT22;25453;48.162;14.510;2022-07-24T11:51:05;34.00;35.90
39777;DHT22;25453;48.162;14.510;2022-07-24T11:53:52;33.80;35.70
39777;DHT22;25453;48.162;14.510;2022-07-24T11:56:20;33.70;36.10
39777;DHT22;25453;48.162;14.510;2022-07-24T11:58:47;33.70;36.50
39777;DHT22;25453;48.162;14.510;2022-07-24T12:01:21;33.70;36.40
39777;DHT22;25453;48.162;14.510;2022-07-24T12:03:57;33.50;36.40
39777;DHT22;25453;48.162;14.510;2022-07-24T12:06:26;33.50;36.60
39777;DHT22;25453;48.162;14.510;2022-07-24T12:09:07;33.50;36.80
39777;DHT22;25453;48.162;14.510;2022-07-24T12:11:34;33.50;37.10
39777;DHT22;25453;48.162;14.510;2022-07-24T12:14:19;33.50;37.40
39777;DHT22;25453;48.162;14.510;2022-07-24T12:16:56;33.70;37.70
39777;DHT22;25453;48.162;14.510;2022-07-24T12:19:25;33.90;37.50
39777;DHT22;25453;48.162;14.510;2022-07-24T12:21:53;34.10;37.20
39777;DHT22;25453;48.162;14.510;2022-07-24T12:24:21;34.20;37.30
39777;DHT22;25453;48.162;14.510;2022-07-24T12:26:56;34.40;36.90
39777;DHT22;25453;48.162;14.510;2022-07-24T12:29:25;34.50;36.30
39777;DHT22;25453;48.162;14.510;2022-07-24T12:32:12;34.60;35.90
39777;DHT22;25453;48.162;14.510;2022-07-24T12:34:46;34.70;35.40
39777;DHT22;25453;48.162;14.510;2022-07-24T12:37:37;34.70;34.60
39777;DHT22;25453;48.162;14.510;2022-07-24T12:40:04;34.70;34.20
39777;DHT22;25453;48.162;14.510;2022-07-24T12:42:32;34.70;34.00
39777;DHT22;25453;48.162;14.510;2022-07-24T12:45:08;34.70;33.60
39777;DHT22;25453;48.162;14.510;2022-07-24T12:51:03;34.60;33.70
39777;DHT22;25453;48.162;14.510;2022-07-24T12:53:33;34.70;33.80
39777;DHT22;25453;48.162;14.510;2022-07-24T12:56:13;34.70;33.50
39777;DHT22;25453;48.162;14.510;2022-07-24T12:59:07;34.70;33.50
39777;DHT22;25453;48.162;14.510;2022-07-24T13:01:54;34.70;33.50
39777;DHT22;25453;48.162;14.510;2022-07-24T13:04:24;34.60;33.40
39777;DHT22;25453;48.162;14.510;2022-07-24T13:06:54;34.50;33.50
39777;DHT22;25453;48.162;14.510;2022-07-24T13:09:22;34.50;33.60
39777;DHT22;25453;48.162;14.510;2022-07-24T13:11:51;34.50;33.60
39777;DHT22;25453;48.162;14.510;2022-07-24T13:14:20;34.50;33.40
39777;DHT22;25453;48.162;14.510;2022-07-24T13:16:49;34.50;33.50
39777;DHT22;25453;48.162;14.510;2022-07-24T13:19:20;34.50;33.50
39777;DHT22;25453;48.162;14.510;2022-07-24T13:21:48;34.50;33.50
39777;DHT22;25453;48.162;14.510;2022-07-24T13:24:16;34.50;33.40
39777;DHT22;25453;48.162;14.510;2022-07-24T13:26:49;34.50;33.60
39777;DHT22;25453;48.162;14.510;2022-07-24T13:29:16;34.50;33.80
39777;DHT22;25453;48.162;14.510;2022-07-24T13:31:44;34.50;34.10
39777;DHT22;25453;48.162;14.510;2022-07-24T13:34:11;34.50;34.50
39777;DHT22;25453;48.162;14.510;2022-07-24T13:36:40;34.50;34.80
39777;DHT22;25453;48.162;14.510;2022-07-24T13:39:14;34.60;34.90
39777;DHT22;25453;48.162;14.510;2022-07-24T13:41:43;34.70;34.80
39777;DHT22;25453;48.162;14.510;2022-07-24T13:44:10;34.70;34.80
39777;DHT22;25453;48.162;14.510;2022-07-24T13:46:38;34.80;34.50
39777;DHT22;25453;48.162;14.510;2022-07-24T13:49:06;34.70;34.30
39777;DHT22;25453;48.162;14.510;2022-07-24T13:51:35;34.60;34.50
39777;DHT22;25453;48.162;14.510;2022-07-24T13:54:04;34.60;34.60
39777;DHT22;25453;48.162;14.510;2022-07-24T13:56:32;34.70;34.70
39777;DHT22;25453;48.162;14.510;2022-07-24T13:58:59;34.70;34.70
39777;DHT22;25453;48.162;14.510;2022-07-24T14:01:28;34.70;34.60
39777;DHT22;25453;48.162;14.510;2022-07-24T14:04:04;34.70;34.70
39777;DHT22;25453;48.162;14.510;2022-07-24T14:06:56;34.70;34.80
39777;DHT22;25453;48.162;14.510;2022-07-24T14:09:23;34.60;34.80
39777;DHT22;25453;48.162;14.510;2022-07-24T14:11:51;34.50;34.80
39777;DHT22;25453;48.162;14.510;2022-07-24T14:14:18;34.40;34.90
39777;DHT22;25453;48.162;14.510;2022-07-24T14:16:46;34.40;34.70
39777;DHT22;25453;48.162;14.510;2022-07-24T14:19:14;34.40;34.90
39777;DHT22;25453;48.162;14.510;2022-07-24T14:21:42;34.30;35.10
39777;DHT22;25453;48.162;14.510;2022-07-24T14:24:15;34.10;35.00
39777;DHT22;25453;48.162;14.510;2022-07-24T14:26:44;34.00;35.40
39777;DHT22;25453;48.162;14.510;2022-07-24T14:29:12;33.90;36.00
39777;DHT22;25453;48.162;14.510;2022-07-24T14:31:39;33.90;36.40
39777;DHT22;25453;48.162;14.510;2022-07-24T14:34:07;33.80;36.40
39777;DHT22;25453;48.162;14.510;2022-07-24T14:36:35;33.90;36.20
39777;DHT22;25453;48.162;14.510;2022-07-24T14:39:04;33.90;36.50
39777;DHT22;25453;48.162;14.510;2022-07-24T14:41:32;33.80;36.80
39777;DHT22;25453;48.162;14.510;2022-07-24T14:44:00;33.80;36.60
39777;DHT22;25453;48.162;14.510;2022-07-24T14:46:34;33.80;36.30
39777;DHT22;25453;48.162;14.510;2022-07-24T14:49:01;33.80;36.40
39777;DHT22;25453;48.162;14.510;2022-07-24T14:51:28;33.80;36.80
39777;DHT22;25453;48.162;14.510;2022-07-24T14:53:56;33.80;36.90
39777;DHT22;25453;48.162;14.510;2022-07-24T14:56:23;33.80;36.80
39777;DHT22;25453;48.162;14.510;2022-07-24T14:58:53;33.80;36.80
39777;DHT22;25453;48.162;14.510;2022-07-24T15:01:20;33.80;37.00
39777;DHT22;25453;48.162;14.510;2022-07-24T15:03:48;33.70;36.80
39777;DHT22;25453;48.162;14.510;2022-07-24T15:06:17;33.50;36.70
39777;DHT22;25453;48.162;14.510;2022-07-24T15:08:44;33.30;37.10
39777;DHT22;25453;48.162;14.510;2022-07-24T15:11:12;33.20;37.30
39777;DHT22;25453;48.162;14.510;2022-07-24T15:13:40;33.10;37.70
39777;DHT22;25453;48.162;14.510;2022-07-24T15:16:08;33.00;37.90
39777;DHT22;25453;48.162;14.510;2022-07-24T15:18:35;32.90;38.10
39777;DHT22;25453;48.162;14.510;2022-07-24T15:21:04;32.80;38.10
39777;DHT22;25453;48.162;14.510;2022-07-24T15:23:32;32.70;38.10
39777;DHT22;25453;48.162;14.510;2022-07-24T15:26:00;32.60;38.20
39777;DHT22;25453;48.162;14.510;2022-07-24T15:28:27;32.50;38.40
39777;DHT22;25453;48.162;14.510;2022-07-24T15:30:54;32.40;38.80
39777;DHT22;25453;48.162;14.510;2022-07-24T15:33:23;32.30;39.00
39777;DHT22;25453;48.162;14.510;2022-07-24T15:35:51;32.20;39.30
39777;DHT22;25453;48.162;14.510;2022-07-24T15:38:18;32.00;39.60
39777;DHT22;25453;48.162;14.510;2022-07-24T15:40:46;31.90;39.50
39777;DHT22;25453;48.162;14.510;2022-07-24T15:43:15;31.80;39.60
39777;DHT22;25453;48.162;14.510;2022-07-24T15:45:42;31.70;39.50
39777;DHT22;25453;48.162;14.510;2022-07-24T15:48:09;31.60;39.80
39777;DHT22;25453;48.162;14.510;2022-07-24T15:50:37;31.50;40.10
39777;DHT22;25453;48.162;14.510;2022-07-24T15:53:05;31.40;40.20
39777;DHT22;25453;48.162;14.510;2022-07-24T15:55:32;31.40;40.20
39777;DHT22;25453;48.162;14.510;2022-07-24T15:58:00;31.40;40.30
39777;DHT22;25453;48.162;14.510;2022-07-24T16:00:27;31.40;40.40
39777;DHT22;25453;48.162;14.510;2022-07-24T16:02:55;31.30;40.20
39777;DHT22;25453;48.162;14.510;2022-07-24T16:05:23;31.30;40.40